South Franklin, Vermont
Current Conditions -  °F | °C
As of 3:35 PM on Sunday 21 Dec 2014 (Local Time) from KFSO Reporting Station
Haze Haze  
Wind Chill: 19°   Ceiling: 2500
Heat Index: 19°   Visibility: 1.7mi
Dew Point: 17°   Wind: 0mph
Humidity: 93%   Direction: NA
Pressure: 30.36"   Gusts: NA
Location:  44.8764°N, 72.758°W
Report Text: KFSO 212035Z AUTO 00000KT 1 3/4SM BR SCT009 OVC025 M07/M08 A3036 RMK AO2 T10721082
Loading
Personal Weather Stations






























Interactive Weather Map New forecast layout! Learn more

10-Day Weather Forecast

Advertisements
Track Severe Weather on mobile